UUDD Airport Information

Runway Information
Runway 14C Length 8531 ft width 148 ft
Elevation 585 ft Threshold 0 ft Heading 146
Runway 32C Length 8531 ft Width 148 ft
Elevation 538 ft Threshold 0 ft Heading 326
Runway 14L Length 12448 ft width 174 ft
Elevation 551 ft Threshold 0 ft Heading 146
Runway 32R Length 12448 ft Width 174 ft
Elevation 519 ft Threshold 0 ft Heading 326
Runway 14R Length 11483 ft width 230 ft
Elevation 588 ft Threshold 0 ft Heading 146
Runway 32L Length 11483 ft Width 230 ft
Elevation 527 ft Threshold 0 ft Heading 326
Airport Frequencies
Type APP Name APP Frequency 120.6 MHZ
Type ATIS Name ATIS Frequency 128.3 MHZ
Type CLD Name DELIVERY Frequency 123.75 MHZ
Type GND Name TAXIING Frequency 119 MHZ
Type MISC Name TRANSIT Frequency 129.15 MHZ
Type PMSV Name VOLMET Frequency 127.875 MHZ
Type RDR Name KRUG Frequency 127.7 MHZ
Type RMP Name APRON Frequency 130.6 MHZ
Type TWR Name TWR Frequency 118.6 MHZ
Airport Navaids
Type NDB Name Domodedovo Frequency 437 KHZ
Type NDB Name Domodedovo Frequency 659 KHZ
Type NDB Name Domodedovo Frequency 659 KHZ
Type NDB Name Domodedovo Frequency 437 KHZ
Type NDB Name Domodedovo Frequency 887 KHZ
Type NDB Name Domodedovo Frequency 320 KHZ
Type NDB Name Domodedovo Frequency 320 KHZ
Type NDB Name Domodedovo Frequency 887 KHZ
Airport Weather Information & NOTAM
ADDS - METARS form results

(1117 UTC 17 July 2018)
 
METAR text: UUDD 171100Z 04008MPS 010V080 9999 FEW046 29/16 Q1005 R88/010095 NOSIG
Conditions at: UUDD (MOSCOW/DOMODEDOV, RU) observed 1100 UTC 17 July 2018
Temperature: 29.0°C (84°F)
Dewpoint: 16.0°C (61°F) [RH = 45%]
Pressure (altimeter): 29.68 inches Hg (1005.0 mb)
Winds: from the NE (40 degrees) at 18 MPH (16 knots; 8.3 m/s)
Visibility: 6 or more miles (10+ km)
Ceiling: at least 12,000 feet AGL
Clouds: few clouds at 4600 feet AGL
Weather: no significant weather observed at this time

METAR text: UUDD 171030Z 06007G12MPS 040V100 9999 FEW046 29/16 Q1006 R88/010095 NOSIG
Conditions at: UUDD (MOSCOW/DOMODEDOV, RU) observed 1030 UTC 17 July 2018
Temperature: 29.0°C (84°F)
Dewpoint: 16.0°C (61°F) [RH = 45%]
Pressure (altimeter): 29.70 inches Hg (1006.0 mb)
Winds: from the ENE (60 degrees) at 16 MPH (14 knots; 7.3 m/s)
gusting to 26 MPH (23 knots; 12.0 m/s)
Visibility: 6 or more miles (10+ km)
Ceiling: at least 12,000 feet AGL
Clouds: few clouds at 4600 feet AGL
Weather: no significant weather observed at this time